Abilene, KS

6:43 AM CDT on September 02, 2014 (GMT -0500)
A.D. Olp Trucking Co | Change Station
CLOSE
Current Station
Personal Weather Station
Location: Abilene, KS
Elevation: 1146 ft
Nearby Weather Stations

Elev 1146 ft 38.90 °N, 97.22 °W | Updated 6 seconds ago

Partly Cloudy
Partly Cloudy
65.6 °F
Feels Like 65.6 °F
N
0.0
Wind Variable Wind from NE
Gusts 0.0 mph

Today
High -- | Low -- °F
--% Chance of Precip.
Yesterday
High -- | Low -- °F
Precip. -- in
6:58 AM 7:57 PM
Waxing Crescent, 50% visible
Pressure 29.93 in
Visibility 4.0 miles
Clouds Clear
Dew Point 65 °F
Humidity 97%
Rainfall 0.00 in
Snow Depth Not available.
UV 0 out of 12
Pollen 10.10 out of 12
Air Quality Not available.
Flu Activity Not available.
SPECI KFRI 021118Z AUTO 04003KT 4SM BR CLR 17/17 A2993 RMK AO2

More Conditions Fewer Conditions

Pressure 29.93 in
Visibility 4.0 miles
Clouds Clear
Dew Point 65 °F
Humidity 97%
Rainfall 0.00 in
Snow Depth Not available.
UV 0 out of 12
Pollen 10.10 out of 12
Air Quality Not available.
Flu Activity Not available.
SPECI KFRI 021118Z AUTO 04003KT 4SM BR CLR 17/17 A2993 RMK AO2

More Conditions Fewer Conditions

10-Day Weather Forecast

Almanac

Astronomy

Sep. 02, 2014 Rise Set
Actual Time 6:58 AM CDT 7:57 PM CDT
Civil Twilight 6:31 AM CDT 8:24 PM CDT
Nautical Twilight 5:58 AM CDT 8:57 PM CDT
Astronomical Twilight 5:25 AM CDT 9:30 PM CDT
Moon 2:40 PM CDT 12:05 AM CDT
Length of Visible Light 13h 53m
Length of Day
12h 58m
Tomorrow will be 2m 27s shorter.
Waxing Crescent, 50% of the Moon is Illuminated
Today
Waxing Crescent
Sep 8
Full
Sep 15
Last Quarter
Sep 24
New
Oct 1
First Quarter

Today's Extremes

State Highs State Lows

Community

WunderPhotos

Upload Photos

1,749,621 photos uploaded!

WunderBlogs® & News

By Dr. Jeff Masters
Director of Meteorology, Weather Underground
By Kari Strenfel
Meteorologist, Weather Underground
By Christopher C. Burt
Weather Historian, Weather Underground
September 2, 2014
September 2, 2014
September 2, 2014

Nearby

Snow Depth

Station Depth Elevation
No new snow has been reported.

Earthquake Activity

City Distance Mag. Time & Date
No recent earthquake activity has been reported nearby.
Minimum magnitude displayed is 2.5.

Coastal Water Temperatures

Place Temperature
No Stations Reporting

Nearby Weather Stations